sensor_id;sensor_type;location;lat;lon;timestamp;pressure;altitude;pressure_sealevel;temperature;humidity
74708;BME280;63360;50.104;8.074;2024-03-08T00:00:16;97186.28;;;2.55;100.00
74708;BME280;63360;50.104;8.074;2024-03-08T00:02:45;97169.56;;;2.47;100.00
74708;BME280;63360;50.104;8.074;2024-03-08T00:05:13;97172.13;;;2.47;100.00
74708;BME280;63360;50.104;8.074;2024-03-08T00:07:41;97171.09;;;2.48;100.00
74708;BME280;63360;50.104;8.074;2024-03-08T00:10:09;97174.72;;;2.52;100.00
74708;BME280;63360;50.104;8.074;2024-03-08T00:12:42;97171.66;;;2.55;100.00
74708;BME280;63360;50.104;8.074;2024-03-08T00:15:13;97172.88;;;2.47;100.00
74708;BME280;63360;50.104;8.074;2024-03-08T00:17:43;97174.72;;;2.47;100.00
74708;BME280;63360;50.104;8.074;2024-03-08T00:20:10;97178.81;;;2.53;100.00
74708;BME280;63360;50.104;8.074;2024-03-08T00:22:37;97171.16;;;2.58;100.00
74708;BME280;63360;50.104;8.074;2024-03-08T00:25:05;97154.16;;;2.47;100.00
74708;BME280;63360;50.104;8.074;2024-03-08T00:27:31;97159.53;;;2.45;100.00
74708;BME280;63360;50.104;8.074;2024-03-08T00:29:58;97155.19;;;2.46;100.00
74708;BME280;63360;50.104;8.074;2024-03-08T00:32:24;97153.38;;;2.41;100.00
74708;BME280;63360;50.104;8.074;2024-03-08T00:34:51;97157.75;;;2.41;100.00
74708;BME280;63360;50.104;8.074;2024-03-08T00:37:21;97150.03;;;2.41;100.00
74708;BME280;63360;50.104;8.074;2024-03-08T00:39:51;97150.81;;;2.41;100.00
74708;BME280;63360;50.104;8.074;2024-03-08T00:42:19;97139.75;;;2.31;100.00
74708;BME280;63360;50.104;8.074;2024-03-08T00:44:46;97136.91;;;2.32;100.00
74708;BME280;63360;50.104;8.074;2024-03-08T00:47:12;97143.59;;;2.33;100.00
74708;BME280;63360;50.104;8.074;2024-03-08T00:49:41;97123.56;;;2.30;100.00
74708;BME280;63360;50.104;8.074;2024-03-08T00:52:08;97142.81;;;2.33;100.00
74708;BME280;63360;50.104;8.074;2024-03-08T00:54:35;97119.94;;;2.16;100.00
74708;BME280;63360;50.104;8.074;2024-03-08T00:57:04;97130.47;;;2.20;100.00
74708;BME280;63360;50.104;8.074;2024-03-08T00:59:32;97135.59;;;2.20;100.00
74708;BME280;63360;50.104;8.074;2024-03-08T01:02:02;97113.75;;;2.07;100.00
74708;BME280;63360;50.104;8.074;2024-03-08T01:04:28;97111.69;;;2.04;100.00
74708;BME280;63360;50.104;8.074;2024-03-08T01:06:56;97126.06;;;2.10;100.00
74708;BME280;63360;50.104;8.074;2024-03-08T01:09:25;97121.69;;;2.11;100.00
74708;BME280;63360;50.104;8.074;2024-03-08T01:11:56;97122.97;;;2.08;100.00
74708;BME280;63360;50.104;8.074;2024-03-08T01:14:23;97110.41;;;2.02;100.00
74708;BME280;63360;50.104;8.074;2024-03-08T01:16:50;97105.25;;;2.02;100.00
74708;BME280;63360;50.104;8.074;2024-03-08T01:19:17;97105.75;;;1.99;100.00
74708;BME280;63360;50.104;8.074;2024-03-08T01:21:43;97116.31;;;2.02;100.00
74708;BME280;63360;50.104;8.074;2024-03-08T01:24:10;97101.41;;;1.94;100.00
74708;BME280;63360;50.104;8.074;2024-03-08T01:26:36;97100.81;;;1.82;100.00
74708;BME280;63360;50.104;8.074;2024-03-08T01:29:03;97102.38;;;1.83;100.00
74708;BME280;63360;50.104;8.074;2024-03-08T01:31:30;97100.59;;;1.89;100.00
74708;BME280;63360;50.104;8.074;2024-03-08T01:33:57;97098.56;;;1.91;100.00
74708;BME280;63360;50.104;8.074;2024-03-08T01:36:24;97089.53;;;1.83;100.00
74708;BME280;63360;50.104;8.074;2024-03-08T01:38:51;97093.13;;;1.87;100.00
74708;BME280;63360;50.104;8.074;2024-03-08T01:41:18;97087.97;;;1.77;100.00
74708;BME280;63360;50.104;8.074;2024-03-08T01:43:44;97091.84;;;1.79;100.00
74708;BME280;63360;50.104;8.074;2024-03-08T01:46:14;97083.59;;;1.67;100.00
74708;BME280;63360;50.104;8.074;2024-03-08T01:48:43;97084.63;;;1.76;100.00
74708;BME280;63360;50.104;8.074;2024-03-08T01:51:10;97075.34;;;1.65;100.00
74708;BME280;63360;50.104;8.074;2024-03-08T01:53:38;97068.94;;;1.63;100.00
74708;BME280;63360;50.104;8.074;2024-03-08T01:56:05;97074.63;;;1.75;100.00
74708;BME280;63360;50.104;8.074;2024-03-08T01:58:32;97061.25;;;1.63;100.00
74708;BME280;63360;50.104;8.074;2024-03-08T02:00:59;97070.47;;;1.64;100.00
74708;BME280;63360;50.104;8.074;2024-03-08T02:03:25;97061.25;;;1.63;100.00
74708;BME280;63360;50.104;8.074;2024-03-08T02:05:52;97044.78;;;1.49;100.00
74708;BME280;63360;50.104;8.074;2024-03-08T02:08:20;97061.97;;;1.53;100.00
74708;BME280;63360;50.104;8.074;2024-03-08T02:10:49;97058.41;;;1.54;100.00
74708;BME280;63360;50.104;8.074;2024-03-08T02:13:15;97043.78;;;1.55;100.00
74708;BME280;63360;50.104;8.074;2024-03-08T02:15:56;97036.81;;;1.45;100.00
74708;BME280;63360;50.104;8.074;2024-03-08T02:18:25;97034.53;;;1.44;100.00
74708;BME280;63360;50.104;8.074;2024-03-08T02:20:56;97055.78;;;1.49;100.00
74708;BME280;63360;50.104;8.074;2024-03-08T02:23:23;97043.22;;;1.43;100.00
74708;BME280;63360;50.104;8.074;2024-03-08T02:25:51;97033.91;;;1.27;100.00
74708;BME280;63360;50.104;8.074;2024-03-08T02:28:18;97039.34;;;1.35;100.00
74708;BME280;63360;50.104;8.074;2024-03-08T02:30:47;97042.91;;;1.34;100.00
74708;BME280;63360;50.104;8.074;2024-03-08T02:33:15;97043.19;;;1.38;100.00
74708;BME280;63360;50.104;8.074;2024-03-08T02:35:46;97049.56;;;1.30;100.00
74708;BME280;63360;50.104;8.074;2024-03-08T02:38:18;97030.06;;;1.24;100.00
74708;BME280;63360;50.104;8.074;2024-03-08T02:40:46;97028.75;;;1.21;100.00
74708;BME280;63360;50.104;8.074;2024-03-08T02:43:13;97022.09;;;1.20;100.00
74708;BME280;63360;50.104;8.074;2024-03-08T02:45:41;97030.53;;;1.21;100.00
74708;BME280;63360;50.104;8.074;2024-03-08T02:48:12;97027.22;;;1.26;100.00
74708;BME280;63360;50.104;8.074;2024-03-08T02:50:39;97010.50;;;1.13;100.00
74708;BME280;63360;50.104;8.074;2024-03-08T02:53:12;97018.50;;;1.21;100.00
74708;BME280;63360;50.104;8.074;2024-03-08T02:55:40;97024.88;;;1.14;100.00
74708;BME280;63360;50.104;8.074;2024-03-08T02:58:07;97015.38;;;1.14;100.00
74708;BME280;63360;50.104;8.074;2024-03-08T03:00:38;97025.94;;;1.23;100.00
74708;BME280;63360;50.104;8.074;2024-03-08T03:03:08;97017.41;;;1.07;100.00
74708;BME280;63360;50.104;8.074;2024-03-08T03:05:35;97018.47;;;1.11;100.00
74708;BME280;63360;50.104;8.074;2024-03-08T03:08:02;97006.63;;;1.05;100.00
74708;BME280;63360;50.104;8.074;2024-03-08T03:10:30;97000.44;;;1.01;100.00
74708;BME280;63360;50.104;8.074;2024-03-08T03:12:57;97008.41;;;1.05;100.00
74708;BME280;63360;50.104;8.074;2024-03-08T03:15:24;97001.72;;;0.99;100.00
74708;BME280;63360;50.104;8.074;2024-03-08T03:17:53;97001.00;;;1.03;100.00
74708;BME280;63360;50.104;8.074;2024-03-08T03:20:20;97012.00;;;1.04;100.00
74708;BME280;63360;50.104;8.074;2024-03-08T03:22:53;96990.41;;;0.90;100.00
74708;BME280;63360;50.104;8.074;2024-03-08T03:25:20;97012.53;;;1.06;100.00
74708;BME280;63360;50.104;8.074;2024-03-08T03:27:55;97010.44;;;0.98;100.00
74708;BME280;63360;50.104;8.074;2024-03-08T03:30:24;97004.28;;;0.99;100.00
74708;BME280;63360;50.104;8.074;2024-03-08T03:32:53;96992.50;;;0.98;100.00
74708;BME280;63360;50.104;8.074;2024-03-08T03:35:21;96999.41;;;0.97;100.00
74708;BME280;63360;50.104;8.074;2024-03-08T03:37:48;96991.19;;;0.90;100.00
74708;BME280;63360;50.104;8.074;2024-03-08T03:40:28;96984.72;;;0.83;100.00
74708;BME280;63360;50.104;8.074;2024-03-08T03:42:55;96993.94;;;0.84;100.00
74708;BME280;63360;50.104;8.074;2024-03-08T03:45:25;96983.41;;;0.80;100.00
74708;BME280;63360;50.104;8.074;2024-03-08T03:47:52;96993.47;;;0.87;100.00
74708;BME280;63360;50.104;8.074;2024-03-08T03:50:19;96982.13;;;0.78;100.00
74708;BME280;63360;50.104;8.074;2024-03-08T03:52:48;96986.75;;;0.81;100.00
74708;BME280;63360;50.104;8.074;2024-03-08T03:55:15;96976.97;;;0.73;100.00
74708;BME280;63360;50.104;8.074;2024-03-08T03:57:41;96984.69;;;0.78;100.00
74708;BME280;63360;50.104;8.074;2024-03-08T04:00:08;96983.13;;;0.72;100.00
74708;BME280;63360;50.104;8.074;2024-03-08T04:02:40;96979.31;;;0.74;100.00
74708;BME280;63360;50.104;8.074;2024-03-08T04:05:08;96978.72;;;0.67;100.00
74708;BME280;63360;50.104;8.074;2024-03-08T04:07:35;96986.50;;;0.77;100.00
74708;BME280;63360;50.104;8.074;2024-03-08T04:10:02;96972.31;;;0.65;100.00
74708;BME280;63360;50.104;8.074;2024-03-08T04:12:29;96982.38;;;0.76;100.00
74708;BME280;63360;50.104;8.074;2024-03-08T04:14:56;96978.50;;;0.69;100.00
74708;BME280;63360;50.104;8.074;2024-03-08T04:17:22;96977.50;;;0.75;100.00
74708;BME280;63360;50.104;8.074;2024-03-08T04:19:50;96978.50;;;0.69;100.00
74708;BME280;63360;50.104;8.074;2024-03-08T04:22:17;96980.03;;;0.70;100.00
74708;BME280;63360;50.104;8.074;2024-03-08T04:24:44;96979.50;;;0.68;100.00
74708;BME280;63360;50.104;8.074;2024-03-08T04:27:12;96970.75;;;0.58;100.00
74708;BME280;63360;50.104;8.074;2024-03-08T04:29:39;96960.75;;;0.57;100.00
74708;BME280;63360;50.104;8.074;2024-03-08T04:32:06;96966.94;;;0.61;100.00
74708;BME280;63360;50.104;8.074;2024-03-08T04:34:34;96954.03;;;0.46;100.00
74708;BME280;63360;50.104;8.074;2024-03-08T04:37:02;96974.84;;;0.59;100.00
74708;BME280;63360;50.104;8.074;2024-03-08T04:39:28;96955.31;;;0.48;100.00
74708;BME280;63360;50.104;8.074;2024-03-08T04:42:00;96959.91;;;0.46;100.00
74708;BME280;63360;50.104;8.074;2024-03-08T04:44:32;96958.94;;;0.52;100.00
74708;BME280;63360;50.104;8.074;2024-03-08T04:46:59;96959.16;;;0.51;100.00
74708;BME280;63360;50.104;8.074;2024-03-08T04:49:26;96954.81;;;0.51;100.00
74708;BME280;63360;50.104;8.074;2024-03-08T04:51:54;96939.69;;;0.45;100.00
74708;BME280;63360;50.104;8.074;2024-03-08T04:54:20;96956.88;;;0.49;100.00
74708;BME280;63360;50.104;8.074;2024-03-08T04:56:47;96937.84;;;0.40;100.00
74708;BME280;63360;50.104;8.074;2024-03-08T04:59:13;96936.59;;;0.43;100.00
74708;BME280;63360;50.104;8.074;2024-03-08T05:01:39;96934.56;;;0.40;100.00
74708;BME280;63360;50.104;8.074;2024-03-08T05:04:06;96944.34;;;0.48;100.00
74708;BME280;63360;50.104;8.074;2024-03-08T05:06:35;96933.03;;;0.44;100.00
74708;BME280;63360;50.104;8.074;2024-03-08T05:09:02;96947.91;;;0.47;100.00
74708;BME280;63360;50.104;8.074;2024-03-08T05:11:46;96933.78;;;0.39;100.00
74708;BME280;63360;50.104;8.074;2024-03-08T05:14:14;96939.94;;;0.43;100.00
74708;BME280;63360;50.104;8.074;2024-03-08T05:16:44;96942.03;;;0.51;100.00
74708;BME280;63360;50.104;8.074;2024-03-08T05:19:15;96934.81;;;0.43;100.00
74708;BME280;63360;50.104;8.074;2024-03-08T05:21:49;96938.09;;;0.34;100.00
74708;BME280;63360;50.104;8.074;2024-03-08T05:24:16;96945.31;;;0.42;100.00
74708;BME280;63360;50.104;8.074;2024-03-08T05:26:45;96917.34;;;0.35;100.00
74708;BME280;63360;50.104;8.074;2024-03-08T05:29:12;96925.78;;;0.31;100.00
74708;BME280;63360;50.104;8.074;2024-03-08T05:34:14;96936.81;;;0.36;100.00
74708;BME280;63360;50.104;8.074;2024-03-08T05:36:41;96933.47;;;0.36;100.00
74708;BME280;63360;50.104;8.074;2024-03-08T05:39:11;96932.44;;;0.32;100.00
74708;BME280;63360;50.104;8.074;2024-03-08T05:41:38;96936.56;;;0.38;100.00
74708;BME280;63360;50.104;8.074;2024-03-08T05:44:05;96924.78;;;0.32;100.00
74708;BME280;63360;50.104;8.074;2024-03-08T05:46:32;96916.50;;;0.25;100.00
74708;BME280;63360;50.104;8.074;2024-03-08T05:48:58;96920.19;;;0.34;100.00
74708;BME280;63360;50.104;8.074;2024-03-08T05:51:25;96920.66;;;0.31;100.00
74708;BME280;63360;50.104;8.074;2024-03-08T05:53:54;96927.88;;;0.39;100.00
74708;BME280;63360;50.104;8.074;2024-03-08T05:56:22;96918.34;;;0.29;100.00
74708;BME280;63360;50.104;8.074;2024-03-08T05:58:50;96913.47;;;0.28;100.00
74708;BME280;63360;50.104;8.074;2024-03-08T06:01:16;96914.00;;;0.30;100.00
74708;BME280;63360;50.104;8.074;2024-03-08T06:03:43;96925.03;;;0.35;100.00
74708;BME280;63360;50.104;8.074;2024-03-08T06:06:12;96914.03;;;0.35;100.00
74708;BME280;63360;50.104;8.074;2024-03-08T06:08:39;96920.69;;;0.36;100.00
74708;BME280;63360;50.104;8.074;2024-03-08T06:11:05;96932.75;;;0.40;100.00
74708;BME280;63360;50.104;8.074;2024-03-08T06:13:32;96920.75;;;0.46;100.00
74708;BME280;63360;50.104;8.074;2024-03-08T06:16:00;96913.84;;;0.46;100.00
74708;BME280;63360;50.104;8.074;2024-03-08T06:18:31;96916.94;;;0.48;100.00
74708;BME280;63360;50.104;8.074;2024-03-08T06:20:57;96899.22;;;0.37;100.00
74708;BME280;63360;50.104;8.074;2024-03-08T06:23:24;96917.47;;;0.50;100.00
74708;BME280;63360;50.104;8.074;2024-03-08T06:25:50;96919.53;;;0.53;100.00
74708;BME280;63360;50.104;8.074;2024-03-08T06:28:16;96903.16;;;0.54;100.00
74708;BME280;63360;50.104;8.074;2024-03-08T06:30:43;96906.81;;;0.64;100.00
74708;BME280;63360;50.104;8.074;2024-03-08T06:33:09;96888.13;;;0.63;100.00
74708;BME280;63360;50.104;8.074;2024-03-08T06:35:36;96911.25;;;0.83;100.00
74708;BME280;63360;50.104;8.074;2024-03-08T06:38:04;96889.94;;;0.68;100.00
74708;BME280;63360;50.104;8.074;2024-03-08T06:40:30;96903.84;;;0.87;100.00
74708;BME280;63360;50.104;8.074;2024-03-08T06:42:57;96919.75;;;0.94;100.00
74708;BME280;63360;50.104;8.074;2024-03-08T06:45:23;96911.06;;;0.95;100.00
74708;BME280;63360;50.104;8.074;2024-03-08T06:47:50;96903.69;;;1.03;100.00
74708;BME280;63360;50.104;8.074;2024-03-08T06:50:16;96891.38;;;1.00;100.00
74708;BME280;63360;50.104;8.074;2024-03-08T06:52:43;96913.69;;;1.10;100.00
74708;BME280;63360;50.104;8.074;2024-03-08T06:55:12;96900.88;;;1.10;100.00
74708;BME280;63360;50.104;8.074;2024-03-08T06:57:39;96896.25;;;1.12;100.00
74708;BME280;63360;50.104;8.074;2024-03-08T07:00:07;96901.97;;;1.24;100.00
74708;BME280;63360;50.104;8.074;2024-03-08T07:02:36;96904.53;;;1.34;100.00
74708;BME280;63360;50.104;8.074;2024-03-08T07:05:02;96903.03;;;1.38;100.00
74708;BME280;63360;50.104;8.074;2024-03-08T07:07:30;96895.34;;;1.43;100.00
74708;BME280;63360;50.104;8.074;2024-03-08T07:09:58;96906.91;;;1.51;100.00
74708;BME280;63360;50.104;8.074;2024-03-08T07:12:24;96912.06;;;1.66;100.00
74708;BME280;63360;50.104;8.074;2024-03-08T07:14:50;96911.81;;;1.67;100.00
74708;BME280;63360;50.104;8.074;2024-03-08T07:17:17;96905.13;;;1.66;100.00
74708;BME280;63360;50.104;8.074;2024-03-08T07:19:43;96905.16;;;1.71;100.00
74708;BME280;63360;50.104;8.074;2024-03-08T07:22:10;96903.88;;;1.74;100.00
74708;BME280;63360;50.104;8.074;2024-03-08T07:24:37;96895.41;;;1.73;100.00
74708;BME280;63360;50.104;8.074;2024-03-08T07:27:24;96913.13;;;1.90;100.00
74708;BME280;63360;50.104;8.074;2024-03-08T07:29:51;96901.84;;;2.01;100.00
74708;BME280;63360;50.104;8.074;2024-03-08T07:32:32;96904.91;;;1.98;100.00
74708;BME280;63360;50.104;8.074;2024-03-08T07:35:00;96894.66;;;2.13;100.00
74708;BME280;63360;50.104;8.074;2024-03-08T07:37:28;96889.53;;;2.23;100.00
74708;BME280;63360;50.104;8.074;2024-03-08T07:39:54;96881.06;;;2.23;100.00
74708;BME280;63360;50.104;8.074;2024-03-08T07:42:21;96886.97;;;2.33;100.00
74708;BME280;63360;50.104;8.074;2024-03-08T07:44:49;96884.91;;;2.30;100.00
74708;BME280;63360;50.104;8.074;2024-03-08T07:47:16;96895.94;;;2.41;100.00
74708;BME280;63360;50.104;8.074;2024-03-08T07:49:47;96883.59;;;2.48;100.00
74708;BME280;63360;50.104;8.074;2024-03-08T07:52:13;96880.22;;;2.63;100.00
74708;BME280;63360;50.104;8.074;2024-03-08T07:54:41;96884.53;;;2.77;100.00
74708;BME280;63360;50.104;8.074;2024-03-08T07:57:08;96887.84;;;2.93;100.00
74708;BME280;63360;50.104;8.074;2024-03-08T07:59:34;96871.47;;;2.79;100.00
74708;BME280;63360;50.104;8.074;2024-03-08T08:02:01;96871.94;;;2.86;100.00
74708;BME280;63360;50.104;8.074;2024-03-08T08:04:27;96878.03;;;3.05;100.00
74708;BME280;63360;50.104;8.074;2024-03-08T08:06:54;96882.16;;;3.06;100.00
74708;BME280;63360;50.104;8.074;2024-03-08T08:09:21;96864.38;;;3.15;100.00
74708;BME280;63360;50.104;8.074;2024-03-08T08:12:00;96870.41;;;3.39;100.00
74708;BME280;63360;50.104;8.074;2024-03-08T08:14:29;96861.97;;;3.33;100.00
74708;BME280;63360;50.104;8.074;2024-03-08T08:16:56;96856.69;;;3.58;100.00
74708;BME280;63360;50.104;8.074;2024-03-08T08:19:24;96866.91;;;3.68;100.00
74708;BME280;63360;50.104;8.074;2024-03-08T08:21:53;96856.63;;;3.68;100.00
74708;BME280;63360;50.104;8.074;2024-03-08T08:24:19;96852.25;;;3.69;100.00
74708;BME280;63360;50.104;8.074;2024-03-08T08:26:48;96858.56;;;3.82;100.00
74708;BME280;63360;50.104;8.074;2024-03-08T08:29:14;96850.97;;;4.00;100.00
74708;BME280;63360;50.104;8.074;2024-03-08T08:31:40;96843.69;;;4.07;100.00
74708;BME280;63360;50.104;8.074;2024-03-08T08:34:09;96839.53;;;4.40;100.00
74708;BME280;63360;50.104;8.074;2024-03-08T08:36:35;96830.00;;;4.41;100.00
74708;BME280;63360;50.104;8.074;2024-03-08T08:39:03;96832.00;;;4.72;100.00
74708;BME280;63360;50.104;8.074;2024-03-08T08:41:29;96820.50;;;5.26;100.00
74708;BME280;63360;50.104;8.074;2024-03-08T08:43:56;96822.69;;;5.19;100.00
74708;BME280;63360;50.104;8.074;2024-03-08T08:46:39;96833.31;;;5.12;100.00
74708;BME280;63360;50.104;8.074;2024-03-08T08:49:07;96835.69;;;5.27;100.00
74708;BME280;63360;50.104;8.074;2024-03-08T08:51:37;96829.81;;;5.59;100.00
74708;BME280;63360;50.104;8.074;2024-03-08T08:54:03;96831.78;;;5.30;100.00
74708;BME280;63360;50.104;8.074;2024-03-08T08:56:29;96837.31;;;5.23;100.00
74708;BME280;63360;50.104;8.074;2024-03-08T08:58:56;96820.38;;;5.36;100.00
74708;BME280;63360;50.104;8.074;2024-03-08T09:01:23;96813.19;;;5.14;100.00
74708;BME280;63360;50.104;8.074;2024-03-08T09:03:49;96809.00;;;5.37;100.00
74708;BME280;63360;50.104;8.074;2024-03-08T09:06:16;96824.63;;;5.27;100.00
74708;BME280;63360;50.104;8.074;2024-03-08T09:08:43;96818.41;;;4.43;100.00
74708;BME280;63360;50.104;8.074;2024-03-08T09:11:12;96819.81;;;4.78;100.00
74708;BME280;63360;50.104;8.074;2024-03-08T09:13:39;96825.59;;;4.70;100.00
74708;BME280;63360;50.104;8.074;2024-03-08T09:16:05;96809.13;;;4.42;100.00
74708;BME280;63360;50.104;8.074;2024-03-08T09:18:32;96810.91;;;4.47;100.00
74708;BME280;63360;50.104;8.074;2024-03-08T09:20:59;96787.66;;;4.28;100.00
74708;BME280;63360;50.104;8.074;2024-03-08T09:23:26;96796.53;;;4.41;100.00
74708;BME280;63360;50.104;8.074;2024-03-08T09:25:56;96798.03;;;4.70;100.00
74708;BME280;63360;50.104;8.074;2024-03-08T09:28:26;96792.81;;;4.75;100.00
74708;BME280;63360;50.104;8.074;2024-03-08T09:30:53;96786.94;;;4.70;100.00
74708;BME280;63360;50.104;8.074;2024-03-08T09:33:25;96780.41;;;4.77;100.00
74708;BME280;63360;50.104;8.074;2024-03-08T09:35:53;96794.75;;;4.83;100.00
74708;BME280;63360;50.104;8.074;2024-03-08T09:38:19;96786.03;;;4.79;100.00
74708;BME280;63360;50.104;8.074;2024-03-08T09:40:47;96783.28;;;4.95;100.00
74708;BME280;63360;50.104;8.074;2024-03-08T09:43:14;96788.19;;;4.72;100.00
74708;BME280;63360;50.104;8.074;2024-03-08T09:45:42;96775.09;;;4.69;100.00
74708;BME280;63360;50.104;8.074;2024-03-08T09:48:12;96800.03;;;4.73;100.00
74708;BME280;63360;50.104;8.074;2024-03-08T09:50:42;96780.53;;;4.67;100.00
74708;BME280;63360;50.104;8.074;2024-03-08T09:53:09;96779.09;;;4.56;100.00
74708;BME280;63360;50.104;8.074;2024-03-08T09:55:38;96774.97;;;4.60;100.00
74708;BME280;63360;50.104;8.074;2024-03-08T09:58:11;96770.56;;;4.61;100.00
74708;BME280;63360;50.104;8.074;2024-03-08T10:01:08;96759.53;;;4.79;100.00
74708;BME280;63360;50.104;8.074;2024-03-08T10:03:35;96749.41;;;4.64;100.00
74708;BME280;63360;50.104;8.074;2024-03-08T10:06:01;96764.78;;;4.69;100.00
74708;BME280;63360;50.104;8.074;2024-03-08T10:08:28;96755.88;;;4.61;100.00
74708;BME280;63360;50.104;8.074;2024-03-08T10:10:57;96741.84;;;4.49;100.00
74708;BME280;63360;50.104;8.074;2024-03-08T10:13:28;96753.22;;;4.66;100.00
74708;BME280;63360;50.104;8.074;2024-03-08T10:15:55;96742.13;;;4.71;100.00
74708;BME280;63360;50.104;8.074;2024-03-08T10:18:21;96747.47;;;4.93;100.00
74708;BME280;63360;50.104;8.074;2024-03-08T10:21:07;96741.28;;;4.94;100.00
74708;BME280;63360;50.104;8.074;2024-03-08T10:23:37;96733.97;;;5.01;100.00
74708;BME280;63360;50.104;8.074;2024-03-08T10:26:13;96734.50;;;4.98;100.00
74708;BME280;63360;50.104;8.074;2024-03-08T10:28:44;96731.38;;;5.01;100.00
74708;BME280;63360;50.104;8.074;2024-03-08T10:31:11;96729.50;;;5.07;100.00
74708;BME280;63360;50.104;8.074;2024-03-08T10:33:39;96725.13;;;5.07;100.00
74708;BME280;63360;50.104;8.074;2024-03-08T10:36:07;96711.69;;;5.10;100.00
74708;BME280;63360;50.104;8.074;2024-03-08T10:38:38;96715.19;;;5.33;100.00
74708;BME280;63360;50.104;8.074;2024-03-08T10:41:08;96710.25;;;5.36;100.00
74708;BME280;63360;50.104;8.074;2024-03-08T10:46:30;96710.78;;;5.66;100.00
74708;BME280;63360;50.104;8.074;2024-03-08T10:49:03;96709.72;;;5.53;100.00
74708;BME280;63360;50.104;8.074;2024-03-08T10:51:34;96691.03;;;5.29;100.00
74708;BME280;63360;50.104;8.074;2024-03-08T10:54:01;96695.13;;;5.30;100.00
74708;BME280;63360;50.104;8.074;2024-03-08T10:56:29;96699.44;;;5.34;100.00
74708;BME280;63360;50.104;8.074;2024-03-08T10:58:55;96692.88;;;5.42;100.00
74708;BME280;63360;50.104;8.074;2024-03-08T11:01:22;96686.38;;;5.44;100.00
74708;BME280;63360;50.104;8.074;2024-03-08T11:03:52;96695.97;;;5.58;100.00
74708;BME280;63360;50.104;8.074;2024-03-08T11:06:42;96682.97;;;5.63;100.00
74708;BME280;63360;50.104;8.074;2024-03-08T11:12:24;96684.25;;;5.79;100.00
74708;BME280;63360;50.104;8.074;2024-03-08T11:14:53;96675.50;;;5.93;100.00
74708;BME280;63360;50.104;8.074;2024-03-08T11:17:40;96668.41;;;5.99;100.00
74708;BME280;63360;50.104;8.074;2024-03-08T11:20:14;96672.84;;;6.12;100.00
74708;BME280;63360;50.104;8.074;2024-03-08T11:22:49;96666.50;;;6.18;100.00
74708;BME280;63360;50.104;8.074;2024-03-08T11:25:38;96673.31;;;6.28;100.00
74708;BME280;63360;50.104;8.074;2024-03-08T11:33:39;96656.25;;;6.76;96.51
74708;BME280;63360;50.104;8.074;2024-03-08T11:36:10;96660.50;;;6.58;93.93
74708;BME280;63360;50.104;8.074;2024-03-08T11:38:44;96663.19;;;6.67;95.65
74708;BME280;63360;50.104;8.074;2024-03-08T11:41:10;96652.31;;;6.43;93.39
74708;BME280;63360;50.104;8.074;2024-03-08T11:43:44;96646.84;;;6.44;93.38
74708;BME280;63360;50.104;8.074;2024-03-08T11:46:11;96646.16;;;6.52;96.27
74708;BME280;63360;50.104;8.074;2024-03-08T11:48:42;96640.63;;;6.59;96.33
74708;BME280;63360;50.104;8.074;2024-03-08T11:51:14;96638.75;;;6.73;95.76
74708;BME280;63360;50.104;8.074;2024-03-08T11:53:41;96623.84;;;6.70;95.34
74708;BME280;63360;50.104;8.074;2024-03-08T11:56:14;96637.47;;;7.06;94.20
74708;BME280;63360;50.104;8.074;2024-03-08T11:58:42;96627.72;;;7.25;91.61
74708;BME280;63360;50.104;8.074;2024-03-08T12:01:10;96630.88;;;7.22;84.84
74708;BME280;63360;50.104;8.074;2024-03-08T12:03:40;96625.88;;;7.26;89.30
74708;BME280;63360;50.104;8.074;2024-03-08T12:06:11;96609.72;;;7.20;85.51
74708;BME280;63360;50.104;8.074;2024-03-08T12:08:41;96626.81;;;7.30;84.30
74708;BME280;63360;50.104;8.074;2024-03-08T12:11:07;96628.41;;;7.17;87.91
74708;BME280;63360;50.104;8.074;2024-03-08T12:13:36;96622.72;;;7.29;89.70
74708;BME280;63360;50.104;8.074;2024-03-08T12:16:03;96598.88;;;7.10;82.73
74708;BME280;63360;50.104;8.074;2024-03-08T12:18:37;96608.16;;;6.89;88.76
74708;BME280;63360;50.104;8.074;2024-03-08T12:21:08;96601.84;;;7.03;90.12
74708;BME280;63360;50.104;8.074;2024-03-08T12:23:37;96597.25;;;7.00;88.85
74708;BME280;63360;50.104;8.074;2024-03-08T12:26:23;96599.00;;;7.05;88.58
74708;BME280;63360;50.104;8.074;2024-03-08T12:28:50;96584.94;;;6.97;87.64
74708;BME280;63360;50.104;8.074;2024-03-08T12:31:16;96598.41;;;7.08;86.96
74708;BME280;63360;50.104;8.074;2024-03-08T12:33:52;96590.66;;;7.16;88.19
74708;BME280;63360;50.104;8.074;2024-03-08T12:36:23;96594.78;;;7.17;88.31
74708;BME280;63360;50.104;8.074;2024-03-08T12:38:49;96574.22;;;7.12;86.15
74708;BME280;63360;50.104;8.074;2024-03-08T12:41:16;96571.72;;;7.29;84.33
74708;BME280;63360;50.104;8.074;2024-03-08T12:43:45;96580.59;;;7.37;88.52
74708;BME280;63360;50.104;8.074;2024-03-08T12:46:19;96576.84;;;7.52;87.89
74708;BME280;63360;50.104;8.074;2024-03-08T12:48:52;96560.22;;;7.44;84.63
74708;BME280;63360;50.104;8.074;2024-03-08T12:51:20;96557.03;;;7.47;84.07
74708;BME280;63360;50.104;8.074;2024-03-08T12:53:47;96567.69;;;7.46;82.27
74708;BME280;63360;50.104;8.074;2024-03-08T12:56:20;96568.13;;;7.39;83.52
74708;BME280;63360;50.104;8.074;2024-03-08T12:58:54;96561.91;;;7.49;83.93
74708;BME280;63360;50.104;8.074;2024-03-08T13:01:21;96551.28;;;7.50;85.83
74708;BME280;63360;50.104;8.074;2024-03-08T13:03:49;96550.19;;;7.51;84.86
74708;BME280;63360;50.104;8.074;2024-03-08T13:06:18;96549.28;;;7.47;81.99
74708;BME280;63360;50.104;8.074;2024-03-08T13:08:47;96536.59;;;7.28;88.54
74708;BME280;63360;50.104;8.074;2024-03-08T13:11:14;96542.44;;;7.51;87.52
74708;BME280;63360;50.104;8.074;2024-03-08T13:13:41;96541.13;;;7.71;85.54
74708;BME280;63360;50.104;8.074;2024-03-08T13:16:08;96529.94;;;7.53;80.45
74708;BME280;63360;50.104;8.074;2024-03-08T13:18:38;96529.22;;;7.53;82.02
74708;BME280;63360;50.104;8.074;2024-03-08T13:21:04;96532.25;;;7.55;81.92
74708;BME280;63360;50.104;8.074;2024-03-08T13:23:34;96548.47;;;7.38;83.19